sensor_id;sensor_type;location;lat;lon;timestamp;temperature;humidity
1800;DHT22;919;48.274;12.292;2022-08-04T00:00:25;17.70;99.90
1800;DHT22;919;48.274;12.292;2022-08-04T00:03:01;17.60;99.90
1800;DHT22;919;48.274;12.292;2022-08-04T00:05:35;17.50;99.90
1800;DHT22;919;48.274;12.292;2022-08-04T00:08:10;17.50;99.90
1800;DHT22;919;48.274;12.292;2022-08-04T00:10:43;17.50;99.90
1800;DHT22;919;48.274;12.292;2022-08-04T00:13:14;17.50;99.90
1800;DHT22;919;48.274;12.292;2022-08-04T00:15:43;17.50;99.90
1800;DHT22;919;48.274;12.292;2022-08-04T00:18:14;17.50;99.90
1800;DHT22;919;48.274;12.292;2022-08-04T00:20:42;17.40;99.90
1800;DHT22;919;48.274;12.292;2022-08-04T00:23:09;17.40;99.90
1800;DHT22;919;48.274;12.292;2022-08-04T00:25:39;17.50;99.90
1800;DHT22;919;48.274;12.292;2022-08-04T00:28:06;17.40;99.90
1800;DHT22;919;48.274;12.292;2022-08-04T00:30:33;17.30;99.90
1800;DHT22;919;48.274;12.292;2022-08-04T00:33:00;17.30;99.90
1800;DHT22;919;48.274;12.292;2022-08-04T00:35:28;17.30;99.90
1800;DHT22;919;48.274;12.292;2022-08-04T00:37:55;17.20;99.90
1800;DHT22;919;48.274;12.292;2022-08-04T00:40:30;17.30;99.90
1800;DHT22;919;48.274;12.292;2022-08-04T00:43:07;17.30;99.90
1800;DHT22;919;48.274;12.292;2022-08-04T00:48:46;17.20;99.90
1800;DHT22;919;48.274;12.292;2022-08-04T00:51:22;17.20;99.90
1800;DHT22;919;48.274;12.292;2022-08-04T00:54:02;17.10;99.90
1800;DHT22;919;48.274;12.292;2022-08-04T00:56:48;16.90;99.90
1800;DHT22;919;48.274;12.292;2022-08-04T00:59:30;17.00;99.90
1800;DHT22;919;48.274;12.292;2022-08-04T01:02:10;17.00;99.90
1800;DHT22;919;48.274;12.292;2022-08-04T01:04:49;17.00;99.90
1800;DHT22;919;48.274;12.292;2022-08-04T01:07:36;16.90;99.90
1800;DHT22;919;48.274;12.292;2022-08-04T01:10:10;16.90;99.90
1800;DHT22;919;48.274;12.292;2022-08-04T01:15:45;16.90;99.90
1800;DHT22;919;48.274;12.292;2022-08-04T01:18:30;16.80;99.90
1800;DHT22;919;48.274;12.292;2022-08-04T01:26:52;16.70;99.90
1800;DHT22;919;48.274;12.292;2022-08-04T01:29:22;16.50;99.90
1800;DHT22;919;48.274;12.292;2022-08-04T01:32:00;16.50;99.90
1800;DHT22;919;48.274;12.292;2022-08-04T01:34:29;16.50;99.90
1800;DHT22;919;48.274;12.292;2022-08-04T01:36:59;16.50;99.90
1800;DHT22;919;48.274;12.292;2022-08-04T01:39:33;16.30;99.90
1800;DHT22;919;48.274;12.292;2022-08-04T01:42:07;16.40;99.90
1800;DHT22;919;48.274;12.292;2022-08-04T01:44:36;16.40;99.90
1800;DHT22;919;48.274;12.292;2022-08-04T01:47:04;16.30;99.90
1800;DHT22;919;48.274;12.292;2022-08-04T01:49:32;16.40;99.90
1800;DHT22;919;48.274;12.292;2022-08-04T01:51:59;16.40;99.90
1800;DHT22;919;48.274;12.292;2022-08-04T01:54:29;16.30;99.90
1800;DHT22;919;48.274;12.292;2022-08-04T01:56:57;16.20;99.90
1800;DHT22;919;48.274;12.292;2022-08-04T01:59:27;16.20;99.90
1800;DHT22;919;48.274;12.292;2022-08-04T02:01:56;16.10;99.90
1800;DHT22;919;48.274;12.292;2022-08-04T02:04:23;16.20;99.90
1800;DHT22;919;48.274;12.292;2022-08-04T02:07:01;16.00;99.90
1800;DHT22;919;48.274;12.292;2022-08-04T02:09:37;16.00;99.90
1800;DHT22;919;48.274;12.292;2022-08-04T02:12:08;16.00;99.90
1800;DHT22;919;48.274;12.292;2022-08-04T02:14:43;16.00;99.90
1800;DHT22;919;48.274;12.292;2022-08-04T02:17:13;16.10;99.90
1800;DHT22;919;48.274;12.292;2022-08-04T02:19:52;16.10;99.90
1800;DHT22;919;48.274;12.292;2022-08-04T02:22:24;16.20;99.90
1800;DHT22;919;48.274;12.292;2022-08-04T02:24:57;16.10;99.90
1800;DHT22;919;48.274;12.292;2022-08-04T02:27:28;16.10;99.90
1800;DHT22;919;48.274;12.292;2022-08-04T02:29:58;16.10;99.90
1800;DHT22;919;48.274;12.292;2022-08-04T02:32:32;16.00;99.90
1800;DHT22;919;48.274;12.292;2022-08-04T02:35:06;16.00;99.90
1800;DHT22;919;48.274;12.292;2022-08-04T02:37:34;16.00;99.90
1800;DHT22;919;48.274;12.292;2022-08-04T02:40:03;16.10;99.90
1800;DHT22;919;48.274;12.292;2022-08-04T02:42:31;16.10;99.90
1800;DHT22;919;48.274;12.292;2022-08-04T02:44:58;16.20;99.90
1800;DHT22;919;48.274;12.292;2022-08-04T02:47:27;16.00;99.90
1800;DHT22;919;48.274;12.292;2022-08-04T02:49:56;15.90;99.90
1800;DHT22;919;48.274;12.292;2022-08-04T02:52:24;15.80;99.90
1800;DHT22;919;48.274;12.292;2022-08-04T02:54:53;15.60;99.90
1800;DHT22;919;48.274;12.292;2022-08-04T02:57:22;15.60;99.90
1800;DHT22;919;48.274;12.292;2022-08-04T03:00:04;15.60;99.90
1800;DHT22;919;48.274;12.292;2022-08-04T03:02:41;15.70;99.90
1800;DHT22;919;48.274;12.292;2022-08-04T03:05:17;15.70;99.90
1800;DHT22;919;48.274;12.292;2022-08-04T03:11:11;15.70;99.90
1800;DHT22;919;48.274;12.292;2022-08-04T03:14:04;15.70;99.90
1800;DHT22;919;48.274;12.292;2022-08-04T03:17:08;15.70;99.90
1800;DHT22;919;48.274;12.292;2022-08-04T03:20:10;15.70;99.90
1800;DHT22;919;48.274;12.292;2022-08-04T03:23:05;15.70;99.90
1800;DHT22;919;48.274;12.292;2022-08-04T03:26:02;15.70;99.90
1800;DHT22;919;48.274;12.292;2022-08-04T03:28:56;15.70;99.90
1800;DHT22;919;48.274;12.292;2022-08-04T03:31:46;15.60;99.90
1800;DHT22;919;48.274;12.292;2022-08-04T03:34:27;15.50;99.90
1800;DHT22;919;48.274;12.292;2022-08-04T03:37:10;15.50;99.90
1800;DHT22;919;48.274;12.292;2022-08-04T03:46:03;15.70;99.90
1800;DHT22;919;48.274;12.292;2022-08-04T03:49:05;15.70;99.90
1800;DHT22;919;48.274;12.292;2022-08-04T03:51:42;15.60;99.90
1800;DHT22;919;48.274;12.292;2022-08-04T03:57:51;15.60;99.90
1800;DHT22;919;48.274;12.292;2022-08-04T04:00:26;15.50;99.90
1800;DHT22;919;48.274;12.292;2022-08-04T04:06:08;15.50;99.90
1800;DHT22;919;48.274;12.292;2022-08-04T04:09:00;15.60;99.90
1800;DHT22;919;48.274;12.292;2022-08-04T04:11:47;15.60;99.90
1800;DHT22;919;48.274;12.292;2022-08-04T04:14:40;15.70;99.90
1800;DHT22;919;48.274;12.292;2022-08-04T04:17:36;15.50;99.90
1800;DHT22;919;48.274;12.292;2022-08-04T04:20:28;15.70;99.90
1800;DHT22;919;48.274;12.292;2022-08-04T04:23:14;15.80;99.90
1800;DHT22;919;48.274;12.292;2022-08-04T04:25:58;15.90;99.90
1800;DHT22;919;48.274;12.292;2022-08-04T04:28:49;16.10;99.90
1800;DHT22;919;48.274;12.292;2022-08-04T04:31:32;16.50;99.90
1800;DHT22;919;48.274;12.292;2022-08-04T04:34:08;16.80;99.90
1800;DHT22;919;48.274;12.292;2022-08-04T04:37:02;16.90;99.90
1800;DHT22;919;48.274;12.292;2022-08-04T04:39:42;16.80;99.90
1800;DHT22;919;48.274;12.292;2022-08-04T04:42:31;16.90;99.90
1800;DHT22;919;48.274;12.292;2022-08-04T04:45:08;16.80;99.90
1800;DHT22;919;48.274;12.292;2022-08-04T04:47:49;16.80;99.90
1800;DHT22;919;48.274;12.292;2022-08-04T04:50:25;16.80;99.90
1800;DHT22;919;48.274;12.292;2022-08-04T04:53:01;16.80;99.90
1800;DHT22;919;48.274;12.292;2022-08-04T04:55:32;16.90;99.90
1800;DHT22;919;48.274;12.292;2022-08-04T04:58:00;16.90;99.90
1800;DHT22;919;48.274;12.292;2022-08-04T05:00:33;16.90;99.90
1800;DHT22;919;48.274;12.292;2022-08-04T05:03:36;17.00;99.90
1800;DHT22;919;48.274;12.292;2022-08-04T05:06:23;17.10;99.90
1800;DHT22;919;48.274;12.292;2022-08-04T05:09:15;17.20;99.90
1800;DHT22;919;48.274;12.292;2022-08-04T05:11:57;17.40;99.90
1800;DHT22;919;48.274;12.292;2022-08-04T05:14:30;17.60;99.90
1800;DHT22;919;48.274;12.292;2022-08-04T05:17:02;17.70;99.90
1800;DHT22;919;48.274;12.292;2022-08-04T05:19:38;18.00;99.90
1800;DHT22;919;48.274;12.292;2022-08-04T05:22:12;18.10;99.90
1800;DHT22;919;48.274;12.292;2022-08-04T05:24:45;18.10;99.90
1800;DHT22;919;48.274;12.292;2022-08-04T05:27:16;18.30;99.90
1800;DHT22;919;48.274;12.292;2022-08-04T05:29:48;18.40;99.90
1800;DHT22;919;48.274;12.292;2022-08-04T05:32:20;18.50;99.90
1800;DHT22;919;48.274;12.292;2022-08-04T05:34:54;18.70;99.90
1800;DHT22;919;48.274;12.292;2022-08-04T05:37:23;18.80;99.90
1800;DHT22;919;48.274;12.292;2022-08-04T05:39:54;18.90;99.90
1800;DHT22;919;48.274;12.292;2022-08-04T05:42:22;19.10;99.90
1800;DHT22;919;48.274;12.292;2022-08-04T05:44:51;19.10;99.90
1800;DHT22;919;48.274;12.292;2022-08-04T05:47:17;19.20;99.90
1800;DHT22;919;48.274;12.292;2022-08-04T05:49:46;19.40;99.90
1800;DHT22;919;48.274;12.292;2022-08-04T05:52:15;19.50;99.90
1800;DHT22;919;48.274;12.292;2022-08-04T05:54:44;19.60;99.90
1800;DHT22;919;48.274;12.292;2022-08-04T05:57:11;19.80;99.90
1800;DHT22;919;48.274;12.292;2022-08-04T05:59:39;19.80;99.90
1800;DHT22;919;48.274;12.292;2022-08-04T06:02:11;19.80;99.90
1800;DHT22;919;48.274;12.292;2022-08-04T06:04:41;19.90;99.90
1800;DHT22;919;48.274;12.292;2022-08-04T06:07:08;20.00;99.90
1800;DHT22;919;48.274;12.292;2022-08-04T06:09:37;20.10;99.90
1800;DHT22;919;48.274;12.292;2022-08-04T06:12:07;20.20;99.90
1800;DHT22;919;48.274;12.292;2022-08-04T06:14:38;20.30;99.90
1800;DHT22;919;48.274;12.292;2022-08-04T06:17:07;20.40;99.90
1800;DHT22;919;48.274;12.292;2022-08-04T06:19:36;20.40;99.90
1800;DHT22;919;48.274;12.292;2022-08-04T06:22:05;20.50;99.90
1800;DHT22;919;48.274;12.292;2022-08-04T06:24:35;20.60;99.90
1800;DHT22;919;48.274;12.292;2022-08-04T06:27:05;20.70;99.90
1800;DHT22;919;48.274;12.292;2022-08-04T06:29:33;20.70;99.90
1800;DHT22;919;48.274;12.292;2022-08-04T06:32:03;20.70;99.90
1800;DHT22;919;48.274;12.292;2022-08-04T06:34:38;20.70;99.90
1800;DHT22;919;48.274;12.292;2022-08-04T06:37:06;20.80;99.90
1800;DHT22;919;48.274;12.292;2022-08-04T06:39:34;20.90;99.90
1800;DHT22;919;48.274;12.292;2022-08-04T06:42:03;21.00;99.90
1800;DHT22;919;48.274;12.292;2022-08-04T06:44:30;21.10;99.90
1800;DHT22;919;48.274;12.292;2022-08-04T06:46:58;21.20;99.90
1800;DHT22;919;48.274;12.292;2022-08-04T06:49:26;21.30;99.90
1800;DHT22;919;48.274;12.292;2022-08-04T06:51:54;21.40;99.90
1800;DHT22;919;48.274;12.292;2022-08-04T06:54:22;21.50;99.90
1800;DHT22;919;48.274;12.292;2022-08-04T06:56:50;21.70;99.90
1800;DHT22;919;48.274;12.292;2022-08-04T06:59:20;21.80;99.90
1800;DHT22;919;48.274;12.292;2022-08-04T07:01:48;21.90;99.90
1800;DHT22;919;48.274;12.292;2022-08-04T07:04:15;22.00;99.90
1800;DHT22;919;48.274;12.292;2022-08-04T07:06:42;22.10;99.90
1800;DHT22;919;48.274;12.292;2022-08-04T07:09:09;22.20;99.90
1800;DHT22;919;48.274;12.292;2022-08-04T07:11:36;22.30;99.90
1800;DHT22;919;48.274;12.292;2022-08-04T07:14:04;22.40;99.90
1800;DHT22;919;48.274;12.292;2022-08-04T07:16:33;22.50;99.90
1800;DHT22;919;48.274;12.292;2022-08-04T07:19:00;22.60;99.90
1800;DHT22;919;48.274;12.292;2022-08-04T07:21:27;22.60;99.90
1800;DHT22;919;48.274;12.292;2022-08-04T07:23:53;22.60;99.90
1800;DHT22;919;48.274;12.292;2022-08-04T07:26:26;22.70;99.90
1800;DHT22;919;48.274;12.292;2022-08-04T07:28:53;22.70;99.90
1800;DHT22;919;48.274;12.292;2022-08-04T07:31:22;22.80;99.90
1800;DHT22;919;48.274;12.292;2022-08-04T07:33:51;22.90;99.90
1800;DHT22;919;48.274;12.292;2022-08-04T07:36:18;23.00;99.90
1800;DHT22;919;48.274;12.292;2022-08-04T07:38:45;23.00;99.90
1800;DHT22;919;48.274;12.292;2022-08-04T07:41:12;23.00;99.90
1800;DHT22;919;48.274;12.292;2022-08-04T07:43:40;23.10;99.90
1800;DHT22;919;48.274;12.292;2022-08-04T07:46:09;23.10;99.90
1800;DHT22;919;48.274;12.292;2022-08-04T07:48:36;23.20;99.90
1800;DHT22;919;48.274;12.292;2022-08-04T07:51:04;23.30;99.90
1800;DHT22;919;48.274;12.292;2022-08-04T07:53:32;23.40;99.90
1800;DHT22;919;48.274;12.292;2022-08-04T07:56:00;23.40;99.90
1800;DHT22;919;48.274;12.292;2022-08-04T07:58:28;23.50;99.90
1800;DHT22;919;48.274;12.292;2022-08-04T08:00:55;23.70;99.90
1800;DHT22;919;48.274;12.292;2022-08-04T08:03:22;23.80;99.90
1800;DHT22;919;48.274;12.292;2022-08-04T08:05:50;23.90;99.90
1800;DHT22;919;48.274;12.292;2022-08-04T08:08:18;24.00;99.90
1800;DHT22;919;48.274;12.292;2022-08-04T08:10:46;24.10;99.90
1800;DHT22;919;48.274;12.292;2022-08-04T08:13:14;24.20;99.90
1800;DHT22;919;48.274;12.292;2022-08-04T08:15:43;24.20;99.90
1800;DHT22;919;48.274;12.292;2022-08-04T08:18:10;24.30;99.90
1800;DHT22;919;48.274;12.292;2022-08-04T08:20:37;24.40;99.90
1800;DHT22;919;48.274;12.292;2022-08-04T08:23:07;24.50;99.90
1800;DHT22;919;48.274;12.292;2022-08-04T08:25:35;24.60;99.90
1800;DHT22;919;48.274;12.292;2022-08-04T08:28:03;24.60;99.90
1800;DHT22;919;48.274;12.292;2022-08-04T08:30:31;24.80;99.90
1800;DHT22;919;48.274;12.292;2022-08-04T08:33:00;24.90;99.90
1800;DHT22;919;48.274;12.292;2022-08-04T08:35:51;25.00;99.90
1800;DHT22;919;48.274;12.292;2022-08-04T08:38:26;25.20;99.90
1800;DHT22;919;48.274;12.292;2022-08-04T08:41:10;25.20;99.90
1800;DHT22;919;48.274;12.292;2022-08-04T08:43:56;25.30;99.90
1800;DHT22;919;48.274;12.292;2022-08-04T08:46:46;25.40;99.90
1800;DHT22;919;48.274;12.292;2022-08-04T08:49:45;25.50;99.90
1800;DHT22;919;48.274;12.292;2022-08-04T08:52:24;25.70;99.90
1800;DHT22;919;48.274;12.292;2022-08-04T08:55:16;25.70;99.90
1800;DHT22;919;48.274;12.292;2022-08-04T08:57:58;25.80;99.90
1800;DHT22;919;48.274;12.292;2022-08-04T09:00:35;26.00;99.90
1800;DHT22;919;48.274;12.292;2022-08-04T09:03:26;26.20;99.90
1800;DHT22;919;48.274;12.292;2022-08-04T09:06:22;26.40;99.90
1800;DHT22;919;48.274;12.292;2022-08-04T09:09:05;26.40;99.90
1800;DHT22;919;48.274;12.292;2022-08-04T09:11:40;26.40;99.90
1800;DHT22;919;48.274;12.292;2022-08-04T09:14:16;26.50;99.90
1800;DHT22;919;48.274;12.292;2022-08-04T09:16:50;26.60;99.90
1800;DHT22;919;48.274;12.292;2022-08-04T09:19:22;26.80;99.90
1800;DHT22;919;48.274;12.292;2022-08-04T09:21:58;26.90;99.90
1800;DHT22;919;48.274;12.292;2022-08-04T09:24:31;27.20;99.90
1800;DHT22;919;48.274;12.292;2022-08-04T09:27:07;27.40;99.90
1800;DHT22;919;48.274;12.292;2022-08-04T09:29:45;27.70;99.90
1800;DHT22;919;48.274;12.292;2022-08-04T09:32:22;27.90;99.90
1800;DHT22;919;48.274;12.292;2022-08-04T09:35:02;27.90;99.90
1800;DHT22;919;48.274;12.292;2022-08-04T09:37:37;28.10;99.90
1800;DHT22;919;48.274;12.292;2022-08-04T09:40:13;28.10;99.90
1800;DHT22;919;48.274;12.292;2022-08-04T09:42:49;28.10;99.90
1800;DHT22;919;48.274;12.292;2022-08-04T09:45:32;28.20;99.90
1800;DHT22;919;48.274;12.292;2022-08-04T09:48:07;28.40;99.90
1800;DHT22;919;48.274;12.292;2022-08-04T09:50:37;28.60;99.90
1800;DHT22;919;48.274;12.292;2022-08-04T09:53:20;28.70;99.90
1800;DHT22;919;48.274;12.292;2022-08-04T09:55:57;28.90;99.90
1800;DHT22;919;48.274;12.292;2022-08-04T09:58:39;29.00;99.90
1800;DHT22;919;48.274;12.292;2022-08-04T10:01:16;29.30;99.90
1800;DHT22;919;48.274;12.292;2022-08-04T10:03:48;29.50;99.90
1800;DHT22;919;48.274;12.292;2022-08-04T10:06:35;29.60;99.90
1800;DHT22;919;48.274;12.292;2022-08-04T10:12:28;29.90;99.90
1800;DHT22;919;48.274;12.292;2022-08-04T10:15:03;30.00;99.90
1800;DHT22;919;48.274;12.292;2022-08-04T10:17:41;30.10;99.90
1800;DHT22;919;48.274;12.292;2022-08-04T10:20:16;30.20;99.90
1800;DHT22;919;48.274;12.292;2022-08-04T10:22:58;30.30;99.90
1800;DHT22;919;48.274;12.292;2022-08-04T10:25:37;30.50;99.90
1800;DHT22;919;48.274;12.292;2022-08-04T10:28:11;30.60;99.90
1800;DHT22;919;48.274;12.292;2022-08-04T10:30:41;30.70;99.90
1800;DHT22;919;48.274;12.292;2022-08-04T10:33:24;30.90;99.90
1800;DHT22;919;48.274;12.292;2022-08-04T10:35:53;31.00;99.90
1800;DHT22;919;48.274;12.292;2022-08-04T10:38:30;31.10;99.90
1800;DHT22;919;48.274;12.292;2022-08-04T10:41:05;31.30;99.90
1800;DHT22;919;48.274;12.292;2022-08-04T10:43:45;31.40;99.90
1800;DHT22;919;48.274;12.292;2022-08-04T10:46:17;31.50;99.90
1800;DHT22;919;48.274;12.292;2022-08-04T10:48:53;31.80;99.90
1800;DHT22;919;48.274;12.292;2022-08-04T10:51:26;31.90;99.90
1800;DHT22;919;48.274;12.292;2022-08-04T10:53:58;31.80;99.90
1800;DHT22;919;48.274;12.292;2022-08-04T10:56:31;31.90;99.90
1800;DHT22;919;48.274;12.292;2022-08-04T10:59:03;32.00;99.90
1800;DHT22;919;48.274;12.292;2022-08-04T11:01:37;32.10;99.90
1800;DHT22;919;48.274;12.292;2022-08-04T11:04:09;32.10;99.90
1800;DHT22;919;48.274;12.292;2022-08-04T11:06:37;32.30;99.90
1800;DHT22;919;48.274;12.292;2022-08-04T11:09:06;32.40;99.90
1800;DHT22;919;48.274;12.292;2022-08-04T11:11:38;32.30;99.90
1800;DHT22;919;48.274;12.292;2022-08-04T11:14:08;32.40;99.90
1800;DHT22;919;48.274;12.292;2022-08-04T11:16:40;32.60;99.90
1800;DHT22;919;48.274;12.292;2022-08-04T11:19:18;32.80;99.90
1800;DHT22;919;48.274;12.292;2022-08-04T11:21:52;33.10;99.90
1800;DHT22;919;48.274;12.292;2022-08-04T11:24:25;33.00;99.90
1800;DHT22;919;48.274;12.292;2022-08-04T11:26:59;33.00;99.90
1800;DHT22;919;48.274;12.292;2022-08-04T11:29:32;32.70;99.90
1800;DHT22;919;48.274;12.292;2022-08-04T11:32:02;32.70;99.90
1800;DHT22;919;48.274;12.292;2022-08-04T11:34:33;32.80;99.90
1800;DHT22;919;48.274;12.292;2022-08-04T11:37:08;33.10;99.90
1800;DHT22;919;48.274;12.292;2022-08-04T11:39:42;33.20;99.90
1800;DHT22;919;48.274;12.292;2022-08-04T11:42:17;33.40;99.90
1800;DHT22;919;48.274;12.292;2022-08-04T11:44:48;33.40;99.90
1800;DHT22;919;48.274;12.292;2022-08-04T11:47:22;33.50;99.90
1800;DHT22;919;48.274;12.292;2022-08-04T11:49:57;33.50;99.90
1800;DHT22;919;48.274;12.292;2022-08-04T11:52:27;33.70;99.90
1800;DHT22;919;48.274;12.292;2022-08-04T11:54:55;33.90;99.90
1800;DHT22;919;48.274;12.292;2022-08-04T11:57:23;33.90;99.90
1800;DHT22;919;48.274;12.292;2022-08-04T11:59:52;34.00;99.90
1800;DHT22;919;48.274;12.292;2022-08-04T12:02:36;34.10;99.90
1800;DHT22;919;48.274;12.292;2022-08-04T12:05:10;34.10;99.90
1800;DHT22;919;48.274;12.292;2022-08-04T12:07:44;34.20;99.90
1800;DHT22;919;48.274;12.292;2022-08-04T12:10:23;34.20;99.90
1800;DHT22;919;48.274;12.292;2022-08-04T12:13:04;34.10;99.90
1800;DHT22;919;48.274;12.292;2022-08-04T12:15:38;34.10;99.90
1800;DHT22;919;48.274;12.292;2022-08-04T12:18:16;34.30;99.90
1800;DHT22;919;48.274;12.292;2022-08-04T12:20:49;34.30;99.50
1800;DHT22;919;48.274;12.292;2022-08-04T12:23:20;34.40;99.90
1800;DHT22;919;48.274;12.292;2022-08-04T12:25:51;34.50;97.30
1800;DHT22;919;48.274;12.292;2022-08-04T12:28:25;34.50;99.60
1800;DHT22;919;48.274;12.292;2022-08-04T12:30:59;34.40;97.90
1800;DHT22;919;48.274;12.292;2022-08-04T12:33:33;34.40;97.40
1800;DHT22;919;48.274;12.292;2022-08-04T12:36:12;34.30;98.50
1800;DHT22;919;48.274;12.292;2022-08-04T12:38:55;34.30;98.90
1800;DHT22;919;48.274;12.292;2022-08-04T12:41:31;34.30;99.60
1800;DHT22;919;48.274;12.292;2022-08-04T12:44:05;34.40;97.70
1800;DHT22;919;48.274;12.292;2022-08-04T12:46:33;34.50;99.00
1800;DHT22;919;48.274;12.292;2022-08-04T12:49:02;34.60;99.30
1800;DHT22;919;48.274;12.292;2022-08-04T12:51:36;34.70;99.30
1800;DHT22;919;48.274;12.292;2022-08-04T12:54:06;34.80;99.60
1800;DHT22;919;48.274;12.292;2022-08-04T12:56:34;34.90;96.70
1800;DHT22;919;48.274;12.292;2022-08-04T12:59:02;35.00;96.80
1800;DHT22;919;48.274;12.292;2022-08-04T13:01:31;35.10;97.70
1800;DHT22;919;48.274;12.292;2022-08-04T13:04:00;35.20;98.00
1800;DHT22;919;48.274;12.292;2022-08-04T13:06:30;35.40;95.90
1800;DHT22;919;48.274;12.292;2022-08-04T13:09:04;35.40;94.60
1800;DHT22;919;48.274;12.292;2022-08-04T13:11:36;35.40;95.00
1800;DHT22;919;48.274;12.292;2022-08-04T13:14:05;35.60;96.90
1800;DHT22;919;48.274;12.292;2022-08-04T13:16:33;35.60;95.00
1800;DHT22;919;48.274;12.292;2022-08-04T13:19:00;35.60;95.40
1800;DHT22;919;48.274;12.292;2022-08-04T13:21:29;35.50;95.00
1800;DHT22;919;48.274;12.292;2022-08-04T13:24:07;35.50;94.50
1800;DHT22;919;48.274;12.292;2022-08-04T13:26:35;35.40;93.50
1800;DHT22;919;48.274;12.292;2022-08-04T13:29:05;35.20;94.10
1800;DHT22;919;48.274;12.292;2022-08-04T13:31:35;35.20;94.00
1800;DHT22;919;48.274;12.292;2022-08-04T13:34:04;35.40;92.80
1800;DHT22;919;48.274;12.292;2022-08-04T13:36:33;35.60;93.10
1800;DHT22;919;48.274;12.292;2022-08-04T13:39:05;35.70;91.90
1800;DHT22;919;48.274;12.292;2022-08-04T13:41:36;35.60;91.70
1800;DHT22;919;48.274;12.292;2022-08-04T13:44:06;35.80;92.80
1800;DHT22;919;48.274;12.292;2022-08-04T13:46:39;36.10;92.60
1800;DHT22;919;48.274;12.292;2022-08-04T13:49:09;35.90;91.80
1800;DHT22;919;48.274;12.292;2022-08-04T13:51:38;35.80;91.90
1800;DHT22;919;48.274;12.292;2022-08-04T13:54:06;35.60;90.80
1800;DHT22;919;48.274;12.292;2022-08-04T13:56:37;35.70;91.00
1800;DHT22;919;48.274;12.292;2022-08-04T13:59:07;35.60;89.30
1800;DHT22;919;48.274;12.292;2022-08-04T14:01:37;35.50;90.20
1800;DHT22;919;48.274;12.292;2022-08-04T14:04:11;35.60;90.00
1800;DHT22;919;48.274;12.292;2022-08-04T14:06:44;35.80;87.70
1800;DHT22;919;48.274;12.292;2022-08-04T14:09:16;35.90;89.90
1800;DHT22;919;48.274;12.292;2022-08-04T14:11:47;36.10;89.90
1800;DHT22;919;48.274;12.292;2022-08-04T14:14:16;36.10;84.50
1800;DHT22;919;48.274;12.292;2022-08-04T14:16:57;36.10;87.80
1800;DHT22;919;48.274;12.292;2022-08-04T14:19:25;36.20;86.20
1800;DHT22;919;48.274;12.292;2022-08-04T14:21:51;36.20;90.30
1800;DHT22;919;48.274;12.292;2022-08-04T14:24:22;36.20;90.20
1800;DHT22;919;48.274;12.292;2022-08-04T14:26:51;36.30;89.20
1800;DHT22;919;48.274;12.292;2022-08-04T14:29:19;36.30;87.40
1800;DHT22;919;48.274;12.292;2022-08-04T14:31:49;36.20;86.20
1800;DHT22;919;48.274;12.292;2022-08-04T14:34:25;36.30;84.60
1800;DHT22;919;48.274;12.292;2022-08-04T14:36:52;36.30;88.80
1800;DHT22;919;48.274;12.292;2022-08-04T14:39:35;36.40;86.60
1800;DHT22;919;48.274;12.292;2022-08-04T14:42:04;36.40;89.40
1800;DHT22;919;48.274;12.292;2022-08-04T14:44:31;36.40;86.60
1800;DHT22;919;48.274;12.292;2022-08-04T14:47:17;36.20;83.00
1800;DHT22;919;48.274;12.292;2022-08-04T14:49:53;35.50;83.30
1800;DHT22;919;48.274;12.292;2022-08-04T14:52:23;35.10;80.60
1800;DHT22;919;48.274;12.292;2022-08-04T14:54:50;35.10;82.30
1800;DHT22;919;48.274;12.292;2022-08-04T14:57:18;35.20;81.20
1800;DHT22;919;48.274;12.292;2022-08-04T14:59:47;35.50;82.30
1800;DHT22;919;48.274;12.292;2022-08-04T15:02:15;35.50;81.90
1800;DHT22;919;48.274;12.292;2022-08-04T15:04:44;35.50;80.80
1800;DHT22;919;48.274;12.292;2022-08-04T15:07:11;35.60;81.80
1800;DHT22;919;48.274;12.292;2022-08-04T15:09:40;35.70;82.50
1800;DHT22;919;48.274;12.292;2022-08-04T15:12:06;35.70;83.20
1800;DHT22;919;48.274;12.292;2022-08-04T15:14:35;35.90;80.40
1800;DHT22;919;48.274;12.292;2022-08-04T15:17:02;36.10;80.70
1800;DHT22;919;48.274;12.292;2022-08-04T15:19:30;36.10;80.20
1800;DHT22;919;48.274;12.292;2022-08-04T15:21:57;36.30;78.80
1800;DHT22;919;48.274;12.292;2022-08-04T15:24:24;36.00;80.00
1800;DHT22;919;48.274;12.292;2022-08-04T15:26:52;35.90;80.80
1800;DHT22;919;48.274;12.292;2022-08-04T15:29:25;35.90;80.10
1800;DHT22;919;48.274;12.292;2022-08-04T15:31:55;35.90;81.80
1800;DHT22;919;48.274;12.292;2022-08-04T15:34:23;36.00;81.70
1800;DHT22;919;48.274;12.292;2022-08-04T15:36:52;36.00;77.70
1800;DHT22;919;48.274;12.292;2022-08-04T15:39:30;36.00;79.40
1800;DHT22;919;48.274;12.292;2022-08-04T15:42:08;36.10;80.00
1800;DHT22;919;48.274;12.292;2022-08-04T15:44:54;36.20;79.70
1800;DHT22;919;48.274;12.292;2022-08-04T15:47:25;36.20;83.90
1800;DHT22;919;48.274;12.292;2022-08-04T15:50:05;36.00;83.60
1800;DHT22;919;48.274;12.292;2022-08-04T15:53:01;36.00;82.50
1800;DHT22;919;48.274;12.292;2022-08-04T15:55:32;35.70;80.30
1800;DHT22;919;48.274;12.292;2022-08-04T15:58:00;35.80;78.90
1800;DHT22;919;48.274;12.292;2022-08-04T16:00:30;35.70;78.70
1800;DHT22;919;48.274;12.292;2022-08-04T16:03:47;35.60;78.00
1800;DHT22;919;48.274;12.292;2022-08-04T16:06:40;35.70;77.70
1800;DHT22;919;48.274;12.292;2022-08-04T16:09:06;35.80;81.00
1800;DHT22;919;48.274;12.292;2022-08-04T16:11:36;35.90;81.00
1800;DHT22;919;48.274;12.292;2022-08-04T16:14:09;35.80;79.40
1800;DHT22;919;48.274;12.292;2022-08-04T16:16:45;35.60;80.00
1800;DHT22;919;48.274;12.292;2022-08-04T16:19:22;35.40;78.10
1800;DHT22;919;48.274;12.292;2022-08-04T16:21:53;35.20;82.30
1800;DHT22;919;48.274;12.292;2022-08-04T16:24:21;35.00;79.00
1800;DHT22;919;48.274;12.292;2022-08-04T16:26:53;35.00;80.30
1800;DHT22;919;48.274;12.292;2022-08-04T16:29:40;35.10;78.70
1800;DHT22;919;48.274;12.292;2022-08-04T16:32:18;34.90;84.80
1800;DHT22;919;48.274;12.292;2022-08-04T16:34:50;34.80;78.00
1800;DHT22;919;48.274;12.292;2022-08-04T16:37:18;34.80;79.00
1800;DHT22;919;48.274;12.292;2022-08-04T16:39:46;34.90;82.20
1800;DHT22;919;48.274;12.292;2022-08-04T16:42:29;35.20;81.20
1800;DHT22;919;48.274;12.292;2022-08-04T16:44:59;35.60;80.50
1800;DHT22;919;48.274;12.292;2022-08-04T16:48:01;36.30;81.60
1800;DHT22;919;48.274;12.292;2022-08-04T16:50:31;37.30;77.60
1800;DHT22;919;48.274;12.292;2022-08-04T16:52:58;38.60;78.70
1800;DHT22;919;48.274;12.292;2022-08-04T16:55:27;39.20;83.30
1800;DHT22;919;48.274;12.292;2022-08-04T16:57:55;40.00;83.00
1800;DHT22;919;48.274;12.292;2022-08-04T17:00:31;40.50;83.60
1800;DHT22;919;48.274;12.292;2022-08-04T17:03:01;40.90;85.50
1800;DHT22;919;48.274;12.292;2022-08-04T17:05:28;40.80;81.40
1800;DHT22;919;48.274;12.292;2022-08-04T17:07:58;40.60;79.70
1800;DHT22;919;48.274;12.292;2022-08-04T17:10:37;40.90;78.20
1800;DHT22;919;48.274;12.292;2022-08-04T17:13:24;41.20;74.20
1800;DHT22;919;48.274;12.292;2022-08-04T17:15:53;41.10;75.70